createdAt,value
2022-08-09T00:00:00.893Z,66.40
2022-08-09T00:04:00.363Z,67.00
2022-08-09T00:06:27.859Z,67.70
2022-08-09T00:09:29.711Z,68.30
2022-08-09T00:12:34.778Z,68.90
2022-08-09T00:15:59.424Z,69.60
2022-08-09T00:18:58.344Z,70.30
2022-08-09T00:21:59.968Z,71.10
2022-08-09T00:25:08.563Z,71.80
2022-08-09T00:28:12.148Z,72.50
2022-08-09T00:31:58.680Z,73.30
2022-08-09T00:34:37.626Z,74.10
2022-08-09T00:37:40.010Z,74.80
2022-08-09T00:40:52.616Z,75.80
2022-08-09T00:44:15.598Z,76.50
2022-08-09T00:47:16.606Z,77.90
2022-08-09T00:50:21.441Z,78.70
2022-08-09T00:53:25.357Z,79.50
2022-08-09T00:56:30.337Z,80.60
2022-08-09T00:59:41.320Z,81.30
2022-08-09T01:03:14.503Z,82.50
2022-08-09T01:06:53.475Z,83.70
2022-08-09T01:10:07.848Z,84.60
2022-08-09T01:13:17.715Z,85.80
2022-08-09T01:16:27.640Z,87.00
2022-08-09T01:19:51.802Z,88.30
2022-08-09T01:24:03.190Z,89.50
2022-08-09T01:27:01.789Z,90.20
2022-08-09T01:30:08.289Z,91.00
2022-08-09T01:33:35.433Z,91.40
2022-08-09T01:36:40.401Z,92.20
2022-08-09T01:39:46.146Z,92.60
2022-08-09T01:42:49.940Z,93.00
2022-08-09T01:45:54.586Z,93.60
2022-08-09T01:49:10.546Z,94.00
2022-08-09T01:52:14.807Z,94.40
2022-08-09T01:55:18.359Z,95.10
2022-08-09T01:58:24.104Z,95.60
2022-08-09T02:01:58.604Z,95.90
2022-08-09T02:04:50.661Z,96.40
2022-08-09T02:08:39.997Z,96.70
2022-08-09T02:11:22.443Z,97.40
2022-08-09T02:14:27.571Z,97.80
2022-08-09T02:18:10.633Z,98.10
2022-08-09T02:20:58.747Z,98.40
2022-08-09T02:24:03.682Z,99.10
2022-08-09T02:27:09.241Z,99.30
2022-08-09T02:30:14.007Z,99.50
2022-08-09T02:33:37.887Z,99.90
2022-08-09T02:36:53.414Z,99.90
2022-08-09T02:40:05.202Z,99.90
2022-08-09T02:43:13.058Z,99.90
2022-08-09T02:46:17.413Z,99.90
2022-08-09T02:49:19.686Z,99.90
2022-08-09T02:52:41.264Z,99.90
2022-08-09T02:55:57.634Z,99.90
2022-08-09T02:59:04.249Z,99.90
2022-08-09T03:02:12.299Z,99.90
2022-08-09T03:05:19.414Z,99.90
2022-08-09T03:08:23.539Z,99.90
2022-08-09T03:11:30.185Z,99.90
2022-08-09T03:14:50.490Z,99.90
2022-08-09T03:17:54.017Z,99.90
2022-08-09T03:21:03.005Z,99.90
2022-08-09T03:24:05.297Z,99.90
2022-08-09T03:27:09.432Z,99.90
2022-08-09T03:30:14.141Z,99.90
2022-08-09T03:33:51.589Z,99.90
2022-08-09T03:36:58.471Z,99.90
2022-08-09T03:40:04.954Z,99.90
2022-08-09T03:43:06.667Z,99.90
2022-08-09T03:46:20.538Z,99.90
2022-08-09T03:49:35.574Z,99.90
2022-08-09T03:52:40.541Z,99.90
2022-08-09T03:55:43.753Z,99.90
2022-08-09T03:58:46.716Z,99.90
2022-08-09T04:01:53.552Z,99.90
2022-08-09T04:05:06.668Z,99.90
2022-08-09T04:08:08.832Z,99.90
2022-08-09T04:11:11.342Z,99.90
2022-08-09T04:14:59.133Z,99.90
2022-08-09T04:17:34.645Z,99.90
2022-08-09T04:20:36.803Z,99.90
2022-08-09T04:23:54.540Z,99.90
2022-08-09T04:26:59.879Z,99.90
2022-08-09T04:30:02.124Z,99.90
2022-08-09T04:33:04.098Z,99.90
2022-08-09T04:36:05.863Z,99.90
2022-08-09T04:39:09.094Z,99.90
2022-08-09T04:42:11.381Z,99.90
2022-08-09T04:45:20.581Z,99.90
2022-08-09T04:48:23.662Z,99.90
2022-08-09T04:51:35.004Z,99.90
2022-08-09T04:54:36.986Z,99.90
2022-08-09T04:57:54.125Z,99.90
2022-08-09T05:01:01.513Z,99.90
2022-08-09T05:04:03.330Z,99.90
2022-08-09T05:07:05.297Z,99.90
2022-08-09T05:10:08.234Z,99.90
2022-08-09T05:13:10.769Z,99.90
2022-08-09T05:16:12.605Z,99.90
2022-08-09T05:19:24.449Z,99.90
2022-08-09T05:22:33.341Z,99.90
2022-08-09T05:25:38.233Z,99.90
2022-08-09T05:28:39.910Z,99.90
2022-08-09T05:31:45.930Z,99.90
2022-08-09T05:34:50.860Z,99.90
2022-08-09T05:37:52.554Z,99.90
2022-08-09T05:40:54.177Z,99.90
2022-08-09T05:43:56.278Z,99.90
2022-08-09T05:47:00.430Z,99.90
2022-08-09T05:50:30.923Z,99.90
2022-08-09T05:53:33.200Z,99.90
2022-08-09T05:56:35.664Z,99.90
2022-08-09T05:59:37.381Z,99.90
2022-08-09T06:02:42.414Z,99.90
2022-08-09T06:06:00.953Z,99.90
2022-08-09T06:09:22.965Z,99.90
2022-08-09T06:12:29.912Z,99.90
2022-08-09T06:15:31.527Z,99.90
2022-08-09T06:18:34.727Z,99.90
2022-08-09T06:21:36.319Z,99.90
2022-08-09T06:24:52.058Z,99.90
2022-08-09T06:27:54.713Z,99.90
2022-08-09T06:30:56.659Z,99.90
2022-08-09T06:33:58.395Z,99.90
2022-08-09T06:37:00.407Z,99.90
2022-08-09T06:40:06.864Z,99.90
2022-08-09T06:43:23.714Z,99.40
2022-08-09T06:46:39.602Z,98.30
2022-08-09T06:50:11.823Z,97.80
2022-08-09T06:53:04.824Z,97.20
2022-08-09T06:56:07.862Z,96.70
2022-08-09T07:00:51.563Z,96.40
2022-08-09T07:02:32.942Z,96.10
2022-08-09T07:05:58.087Z,95.60
2022-08-09T07:08:56.679Z,95.40
2022-08-09T07:11:58.559Z,94.30
2022-08-09T07:15:00.169Z,94.10
2022-08-09T07:18:22.040Z,93.40
2022-08-09T07:21:23.751Z,92.60
2022-08-09T07:24:32.357Z,92.20
2022-08-09T07:27:53.318Z,91.80
2022-08-09T07:30:57.122Z,91.50
2022-08-09T07:33:58.750Z,90.60
2022-08-09T07:37:02.872Z,90.30
2022-08-09T07:40:05.715Z,90.30
2022-08-09T07:43:14.723Z,88.10
2022-08-09T07:46:19.123Z,87.50
2022-08-09T07:49:21.272Z,86.70
2022-08-09T07:52:24.121Z,86.10
2022-08-09T07:55:28.778Z,85.30
2022-08-09T07:58:42.798Z,84.50
2022-08-09T08:01:53.184Z,83.60
2022-08-09T08:04:55.209Z,83.50
2022-08-09T08:08:43.329Z,83.20
2022-08-09T08:12:10.350Z,82.50
2022-08-09T08:14:40.815Z,81.90
2022-08-09T08:17:54.547Z,82.30
2022-08-09T08:20:57.398Z,81.60
2022-08-09T08:24:01.038Z,80.70
2022-08-09T08:27:03.403Z,80.10
2022-08-09T08:30:05.874Z,79.80
2022-08-09T08:33:11.757Z,79.40
2022-08-09T08:36:13.853Z,78.80
2022-08-09T08:39:39.271Z,77.90
2022-08-09T08:42:47.176Z,77.90
2022-08-09T08:46:04.071Z,77.00
2022-08-09T08:49:18.951Z,77.10
2022-08-09T08:55:48.350Z,75.90
2022-08-09T08:58:50.900Z,75.70
2022-08-09T09:01:57.219Z,74.90
2022-08-09T09:05:03.021Z,73.30
2022-08-09T09:08:29.275Z,73.40
2022-08-09T09:11:33.808Z,72.30
2022-08-09T09:14:40.152Z,71.60
2022-08-09T09:17:48.900Z,71.30
2022-08-09T09:20:54.869Z,71.00
2022-08-09T09:24:10.384Z,70.30
2022-08-09T09:28:06.483Z,69.90
2022-08-09T09:30:57.176Z,70.20
2022-08-09T09:34:14.688Z,67.30
2022-08-09T09:37:32.028Z,66.40
2022-08-09T09:40:46.173Z,66.50
2022-08-09T09:44:10.667Z,65.70
2022-08-09T09:47:16.213Z,66.20
2022-08-09T09:50:23.204Z,66.20
2022-08-09T09:53:44.224Z,66.20
2022-08-09T09:58:01.578Z,65.60
2022-08-09T10:00:25.787Z,65.80
2022-08-09T10:03:58.010Z,64.50
2022-08-09T10:07:03.637Z,63.50
2022-08-09T10:10:28.261Z,63.90
2022-08-09T10:13:43.442Z,62.30
2022-08-09T10:16:57.980Z,61.70
2022-08-09T10:20:32.469Z,61.30
2022-08-09T10:23:36.200Z,59.80
2022-08-09T10:26:43.804Z,59.20
2022-08-09T10:30:43.878Z,59.90
2022-08-09T10:33:10.596Z,60.80
2022-08-09T10:36:32.610Z,59.20
2022-08-09T10:39:40.600Z,59.00
2022-08-09T10:43:04.728Z,58.40
2022-08-09T10:46:52.354Z,57.90
2022-08-09T10:50:10.643Z,57.70
2022-08-09T10:53:54.137Z,58.10
2022-08-09T10:57:11.212Z,57.10
2022-08-09T11:00:29.017Z,56.60
2022-08-09T11:03:49.808Z,57.30
2022-08-09T11:07:02.900Z,57.00
2022-08-09T11:10:04.903Z,56.60
2022-08-09T11:13:53.806Z,55.90
2022-08-09T11:16:41.667Z,55.90
2022-08-09T11:20:22.773Z,55.50
2022-08-09T11:23:29.999Z,55.50
2022-08-09T11:30:21.738Z,55.00
2022-08-09T11:33:45.613Z,55.50
2022-08-09T11:36:51.051Z,55.20
2022-08-09T11:40:10.216Z,54.90
2022-08-09T11:43:42.875Z,53.50
2022-08-09T11:47:02.601Z,53.10
2022-08-09T11:50:55.069Z,52.90
2022-08-09T11:53:58.534Z,53.10
2022-08-09T11:57:47.949Z,53.00
2022-08-09T12:01:03.499Z,52.70
2022-08-09T12:04:20.976Z,52.40
2022-08-09T12:07:41.477Z,52.20
2022-08-09T12:10:48.477Z,52.10
2022-08-09T12:14:09.025Z,52.10
2022-08-09T12:17:28.015Z,51.70
2022-08-09T12:20:43.545Z,51.60
2022-08-09T12:24:06.447Z,51.40
2022-08-09T12:29:15.117Z,51.40
2022-08-09T12:30:42.008Z,51.30
2022-08-09T12:33:59.372Z,51.20
2022-08-09T12:37:21.363Z,50.80
2022-08-09T12:40:28.486Z,50.70
2022-08-09T12:44:06.705Z,50.20
2022-08-09T12:46:54.969Z,49.90
2022-08-09T12:50:15.813Z,50.10
2022-08-09T12:53:58.899Z,50.10
2022-08-09T12:57:00.529Z,50.10
2022-08-09T13:00:35.312Z,50.00
2022-08-09T13:03:52.582Z,49.90
2022-08-09T13:06:56.359Z,49.60
2022-08-09T13:10:02.762Z,49.70
2022-08-09T13:13:09.644Z,49.40
2022-08-09T13:16:15.790Z,49.40
2022-08-09T13:20:10.038Z,49.10
2022-08-09T13:24:06.474Z,49.10
2022-08-09T13:26:37.028Z,49.00
2022-08-09T13:30:02.484Z,48.60
2022-08-09T13:33:00.741Z,48.60
2022-08-09T13:36:39.875Z,48.60
2022-08-09T13:41:50.897Z,48.60
2022-08-09T13:42:47.252Z,48.70
2022-08-09T13:46:42.905Z,48.30
2022-08-09T13:49:18.493Z,48.40
2022-08-09T13:52:20.590Z,48.40
2022-08-09T13:55:22.281Z,48.50
2022-08-09T13:58:24.244Z,48.00
2022-08-09T14:02:00.523Z,48.00
2022-08-09T14:04:59.210Z,47.70
2022-08-09T14:08:05.856Z,47.50
2022-08-09T14:11:09.877Z,47.70
2022-08-09T14:14:26.703Z,47.80
2022-08-09T14:17:32.699Z,47.50
2022-08-09T14:20:52.566Z,47.80
2022-08-09T14:23:57.099Z,47.80
2022-08-09T14:27:00.262Z,47.70
2022-08-09T14:30:34.344Z,47.50
2022-08-09T14:33:24.697Z,47.80
2022-08-09T14:36:28.056Z,47.50
2022-08-09T14:39:46.829Z,47.30
2022-08-09T14:42:50.110Z,47.50
2022-08-09T14:46:55.534Z,47.20
2022-08-09T14:49:15.326Z,47.30
2022-08-09T14:52:18.006Z,46.90
2022-08-09T14:55:20.009Z,47.00
2022-08-09T14:58:22.526Z,47.20
2022-08-09T15:01:24.789Z,47.20
2022-08-09T15:04:27.610Z,46.90
2022-08-09T15:07:30.855Z,46.90
2022-08-09T15:10:38.217Z,46.40
2022-08-09T15:13:56.499Z,46.60
2022-08-09T15:17:05.014Z,46.50
2022-08-09T15:20:07.424Z,46.70
2022-08-09T15:24:03.298Z,46.70
2022-08-09T15:26:35.250Z,46.80
2022-08-09T15:30:56.499Z,47.20
2022-08-09T15:32:59.209Z,47.00
2022-08-09T15:36:01.588Z,47.00
2022-08-09T15:39:04.102Z,46.70
2022-08-09T15:42:05.926Z,46.70
2022-08-09T15:45:09.941Z,46.70
2022-08-09T15:48:16.146Z,46.80
2022-08-09T15:52:03.111Z,46.60
2022-08-09T15:54:53.204Z,46.20
2022-08-09T15:57:54.899Z,46.20
2022-08-09T16:00:56.965Z,46.10
2022-08-09T16:03:58.687Z,45.90
2022-08-09T16:07:01.917Z,46.20
2022-08-09T16:10:07.977Z,46.00
2022-08-09T16:14:01.823Z,45.90
2022-08-09T16:16:41.980Z,45.80
2022-08-09T16:19:49.375Z,45.60
2022-08-09T16:23:06.319Z,45.70
2022-08-09T16:26:08.027Z,45.40
2022-08-09T16:29:21.509Z,45.40
2022-08-09T16:32:58.469Z,45.90
2022-08-09T16:36:08.282Z,45.90
2022-08-09T16:39:13.677Z,45.70
2022-08-09T16:42:15.372Z,45.60
2022-08-09T16:45:25.454Z,45.50
2022-08-09T16:48:42.025Z,45.70
2022-08-09T16:51:53.988Z,45.50
2022-08-09T16:54:57.158Z,45.30
2022-08-09T16:58:10.057Z,45.40
2022-08-09T17:01:13.241Z,45.30
2022-08-09T17:04:25.667Z,45.40
2022-08-09T17:08:42.841Z,45.30
2022-08-09T17:10:56.821Z,45.40
2022-08-09T17:14:01.627Z,45.60
2022-08-09T17:17:25.960Z,45.60
2022-08-09T17:20:30.387Z,45.70
2022-08-09T17:24:20.720Z,45.50
2022-08-09T17:27:14.988Z,45.40
2022-08-09T17:30:17.264Z,45.50
2022-08-09T17:33:22.565Z,45.60
2022-08-09T17:36:24.529Z,45.80
2022-08-09T17:39:27.957Z,45.70
2022-08-09T17:42:50.133Z,46.00
2022-08-09T17:46:03.287Z,46.00
2022-08-09T17:49:08.319Z,46.20
2022-08-09T17:52:20.688Z,46.20
2022-08-09T17:55:47.217Z,46.20
2022-08-09T17:58:51.999Z,46.30
2022-08-09T18:02:06.573Z,46.20
2022-08-09T18:05:15.404Z,46.20
2022-08-09T18:08:17.004Z,46.30
2022-08-09T18:11:20.825Z,46.60
2022-08-09T18:14:26.275Z,47.00
2022-08-09T18:18:02.074Z,47.70
2022-08-09T18:21:19.118Z,47.50
2022-08-09T18:24:17.656Z,47.70
2022-08-09T18:27:49.380Z,47.80
2022-08-09T18:30:49.412Z,47.90
2022-08-09T18:33:53.643Z,48.20
2022-08-09T18:36:55.790Z,48.30
2022-08-09T18:39:57.864Z,48.50
2022-08-09T18:42:59.564Z,48.70
2022-08-09T18:46:47.640Z,48.80
2022-08-09T18:49:23.823Z,49.00
2022-08-09T18:52:34.526Z,49.10
2022-08-09T18:55:56.073Z,49.20
2022-08-09T18:58:58.523Z,49.80
2022-08-09T19:02:03.381Z,49.40
2022-08-09T19:05:20.255Z,49.50
2022-08-09T19:08:30.672Z,49.50
2022-08-09T19:11:38.011Z,49.60
2022-08-09T19:14:40.145Z,49.80
2022-08-09T19:17:52.510Z,50.00
2022-08-09T19:20:58.749Z,50.20
2022-08-09T19:24:36.016Z,50.30
2022-08-09T19:27:24.085Z,50.40
2022-08-09T19:30:30.279Z,50.60
2022-08-09T19:33:34.447Z,50.70
2022-08-09T19:36:36.064Z,50.80
2022-08-09T19:40:02.537Z,50.90
2022-08-09T19:42:59.362Z,51.10
2022-08-09T19:46:03.087Z,51.20
2022-08-09T19:50:06.557Z,51.30
2022-08-09T19:52:28.008Z,51.50
2022-08-09T19:56:02.075Z,51.60
2022-08-09T19:58:56.283Z,51.70
2022-08-09T20:04:23.749Z,51.80
2022-08-09T20:05:46.118Z,52.30
2022-08-09T20:08:48.890Z,52.10
2022-08-09T20:11:53.285Z,52.30
2022-08-09T20:14:54.975Z,52.40
2022-08-09T20:17:59.462Z,52.50
2022-08-09T20:21:02.043Z,52.60
2022-08-09T20:24:04.282Z,52.70
2022-08-09T20:27:08.427Z,52.90
2022-08-09T20:30:13.961Z,52.90
2022-08-09T20:33:19.822Z,53.00
2022-08-09T20:36:23.145Z,53.10
2022-08-09T20:40:16.678Z,53.10
2022-08-09T20:42:59.348Z,53.30
2022-08-09T20:46:33.395Z,53.30
2022-08-09T20:49:24.002Z,53.40
2022-08-09T20:52:27.299Z,53.60
2022-08-09T20:55:29.549Z,53.70
2022-08-09T20:58:57.770Z,53.80
2022-08-09T21:02:00.451Z,53.90
2022-08-09T21:05:57.691Z,54.00
2022-08-09T21:08:23.941Z,54.10
2022-08-09T21:15:02.567Z,54.30
2022-08-09T21:18:23.030Z,54.40
2022-08-09T21:21:52.955Z,54.30
2022-08-09T21:25:06.646Z,54.50
2022-08-09T21:28:12.239Z,54.60
2022-08-09T21:31:19.923Z,54.60
2022-08-09T21:34:28.799Z,54.70
2022-08-09T21:37:40.598Z,54.80
2022-08-09T21:40:53.633Z,54.90
2022-08-09T21:43:57.682Z,55.00
2022-08-09T21:46:59.971Z,55.00
2022-08-09T21:50:01.930Z,55.20
2022-08-09T21:53:06.388Z,55.20
2022-08-09T21:56:33.854Z,55.30
2022-08-09T21:59:43.006Z,55.30
2022-08-09T22:02:51.096Z,55.50
2022-08-09T22:06:00.957Z,55.60
2022-08-09T22:09:02.851Z,55.70
2022-08-09T22:12:17.874Z,55.80
2022-08-09T22:15:23.316Z,55.90
2022-08-09T22:18:38.290Z,55.90
2022-08-09T22:21:44.987Z,56.10
2022-08-09T22:26:04.319Z,56.10
2022-08-09T22:28:13.788Z,56.10
2022-08-09T22:31:31.479Z,56.40
2022-08-09T22:34:40.019Z,56.50
2022-08-09T22:37:43.071Z,56.60
2022-08-09T22:40:49.321Z,56.60
2022-08-09T22:44:01.824Z,56.80
2022-08-09T22:48:10.151Z,56.90
2022-08-09T22:50:27.901Z,57.00
2022-08-09T22:53:33.278Z,57.10
2022-08-09T22:56:45.870Z,57.10
2022-08-09T22:59:57.578Z,57.30
2022-08-09T23:03:00.821Z,57.40
2022-08-09T23:06:03.507Z,57.60
2022-08-09T23:09:06.821Z,57.60
2022-08-09T23:12:08.599Z,57.70
2022-08-09T23:15:10.640Z,57.90
2022-08-09T23:18:12.293Z,57.90
2022-08-09T23:21:15.216Z,58.00
2022-08-09T23:24:26.257Z,58.20
2022-08-09T23:27:27.875Z,58.40
2022-08-09T23:30:29.544Z,58.40
2022-08-09T23:33:31.365Z,58.70
2022-08-09T23:36:34.992Z,58.80
2022-08-09T23:39:36.710Z,59.00
2022-08-09T23:42:38.396Z,59.20
2022-08-09T23:45:42.326Z,59.30
2022-08-09T23:48:43.918Z,59.30
2022-08-09T23:51:45.593Z,59.40
2022-08-09T23:54:47.268Z,59.50
2022-08-09T23:58:06.631Z,59.80
